Terminal Aerodrome Forecast
Issued by NWS Shreveport, LA

Home | Current Version | Previous Version | Text Only | Print | Product List | Glossary On
Versions: 1 2 3 4 5 6 7 8 9 10 11 12
000
FTUS44 KSHV 041751
TAFTYR
TAF
KTYR 041751Z 0418/0518 21008KT P6SM BKN070 BKN250
     FM042000 19008KT P6SM VCSH BKN070 BKN250
     FM050100 16006KT P6SM BKN250
     FM051400 21010KT P6SM BKN250=

USA.gov is the U.S. government's official web portal to all federal, state and local government web resources and services.